createdAt,value
2023-01-09T00:01:20.528Z,5.60
2023-01-09T00:03:47.804Z,5.60
2023-01-09T00:06:15.077Z,5.60
2023-01-09T00:08:42.395Z,5.70
2023-01-09T00:11:10.376Z,5.50
2023-01-09T00:13:38.537Z,5.40
2023-01-09T00:16:07.195Z,5.50
2023-01-09T00:18:38.281Z,5.40
2023-01-09T00:21:11.739Z,5.40
2023-01-09T00:23:42.324Z,5.40
2023-01-09T00:26:17.021Z,5.30
2023-01-09T00:28:46.136Z,5.30
2023-01-09T00:31:14.295Z,5.30
2023-01-09T00:33:54.965Z,5.50
2023-01-09T00:36:22.280Z,5.40
2023-01-09T00:38:50.299Z,5.40
2023-01-09T00:41:40.076Z,5.40
2023-01-09T00:44:33.367Z,5.50
2023-01-09T00:47:12.042Z,5.50
2023-01-09T00:49:40.625Z,5.50
2023-01-09T00:52:11.840Z,5.60
2023-01-09T00:54:40.620Z,5.60
2023-01-09T00:57:10.859Z,5.60
2023-01-09T00:59:38.548Z,5.60
2023-01-09T01:02:06.078Z,5.60
2023-01-09T01:04:51.925Z,5.70
2023-01-09T01:07:37.601Z,5.70
2023-01-09T01:10:07.868Z,5.70
2023-01-09T01:12:36.813Z,5.80
2023-01-09T01:15:05.250Z,5.80
2023-01-09T01:17:37.174Z,5.80
2023-01-09T01:20:12.730Z,5.90
2023-01-09T01:22:42.413Z,5.90
2023-01-09T01:25:11.703Z,5.90
2023-01-09T01:27:39.202Z,6.00
2023-01-09T01:30:08.345Z,5.90
2023-01-09T01:32:35.545Z,6.00
2023-01-09T01:35:02.981Z,6.00
2023-01-09T01:37:30.532Z,6.00
2023-01-09T01:39:57.785Z,6.10
2023-01-09T01:42:25.096Z,6.10
2023-01-09T01:45:12.703Z,6.10
2023-01-09T01:47:54.755Z,6.00
2023-01-09T01:50:27.541Z,6.00
2023-01-09T01:53:12.781Z,6.10
2023-01-09T01:56:05.844Z,6.00
2023-01-09T01:58:39.405Z,6.00
2023-01-09T02:01:06.943Z,6.00
2023-01-09T02:03:36.041Z,6.00
2023-01-09T02:06:04.963Z,6.00
2023-01-09T02:08:36.505Z,6.00
2023-01-09T02:11:07.317Z,6.00
2023-01-09T02:13:38.701Z,5.90
2023-01-09T02:16:15.052Z,5.80
2023-01-09T02:18:52.094Z,5.90
2023-01-09T02:21:54.362Z,5.80
2023-01-09T02:24:40.112Z,5.80
2023-01-09T02:27:35.168Z,5.90
2023-01-09T02:30:34.070Z,5.80
2023-01-09T02:33:26.658Z,5.80
2023-01-09T02:36:13.830Z,5.80
2023-01-09T02:39:15.811Z,5.80
2023-01-09T02:41:48.811Z,5.80
2023-01-09T02:44:28.061Z,5.80
2023-01-09T02:47:01.023Z,5.70
2023-01-09T02:49:28.441Z,5.70
2023-01-09T02:52:05.098Z,5.70
2023-01-09T02:54:58.144Z,5.70
2023-01-09T02:57:53.195Z,5.70
2023-01-09T03:00:38.509Z,5.70
2023-01-09T03:03:21.003Z,5.80
2023-01-09T03:05:54.295Z,5.80
2023-01-09T03:08:25.336Z,5.80
2023-01-09T03:10:59.493Z,5.80
2023-01-09T03:13:32.159Z,5.80
2023-01-09T03:16:05.167Z,5.70
2023-01-09T03:18:34.316Z,5.70
2023-01-09T03:21:03.006Z,5.70
2023-01-09T03:23:48.186Z,5.60
2023-01-09T03:26:15.535Z,5.60
2023-01-09T03:28:43.377Z,5.60
2023-01-09T03:31:10.854Z,5.60
2023-01-09T03:33:38.166Z,5.50
2023-01-09T03:36:06.086Z,5.60
2023-01-09T03:38:33.554Z,5.60
2023-01-09T03:41:00.853Z,5.60
2023-01-09T03:43:28.440Z,5.50
2023-01-09T03:45:56.064Z,5.50
2023-01-09T03:48:23.520Z,5.50
2023-01-09T03:50:52.681Z,5.50
2023-01-09T03:53:21.806Z,5.60
2023-01-09T03:55:51.741Z,5.60
2023-01-09T03:58:20.033Z,5.50
2023-01-09T04:00:51.185Z,5.50
2023-01-09T04:03:20.476Z,5.50
2023-01-09T04:05:49.544Z,5.50
2023-01-09T04:08:18.767Z,5.40
2023-01-09T04:10:47.331Z,5.30
2023-01-09T04:13:14.839Z,5.40
2023-01-09T04:15:42.241Z,5.40
2023-01-09T04:18:09.656Z,5.50
2023-01-09T04:20:36.982Z,5.50
2023-01-09T04:23:04.307Z,5.50
2023-01-09T04:25:31.552Z,5.50
2023-01-09T04:27:59.021Z,5.50
2023-01-09T04:30:27.339Z,5.50
2023-01-09T04:32:54.522Z,5.50
2023-01-09T04:35:22.107Z,5.50
2023-01-09T04:37:49.342Z,5.50
2023-01-09T04:40:16.754Z,5.70
2023-01-09T04:42:43.904Z,5.60
2023-01-09T04:45:15.284Z,5.60
2023-01-09T04:47:42.857Z,5.60
2023-01-09T04:50:11.370Z,5.60
2023-01-09T04:52:39.234Z,5.70
2023-01-09T04:55:08.061Z,5.70
2023-01-09T04:57:36.140Z,5.70
2023-01-09T05:00:05.100Z,5.80
2023-01-09T05:02:32.298Z,5.90
2023-01-09T05:05:01.185Z,5.90
2023-01-09T05:07:28.473Z,6.00
2023-01-09T05:09:55.665Z,6.00
2023-01-09T05:12:22.885Z,6.10
2023-01-09T05:14:50.079Z,6.10
2023-01-09T05:17:17.347Z,6.20
2023-01-09T05:19:45.482Z,6.30
2023-01-09T05:22:13.182Z,6.40
2023-01-09T05:24:40.622Z,6.40
2023-01-09T05:27:08.309Z,6.50
2023-01-09T05:29:35.536Z,6.70
2023-01-09T05:32:02.867Z,6.70
2023-01-09T05:34:30.155Z,6.70
2023-01-09T05:36:57.426Z,6.70
2023-01-09T05:39:24.734Z,6.80
2023-01-09T05:41:51.944Z,6.80
2023-01-09T05:44:19.160Z,6.90
2023-01-09T05:46:46.382Z,6.90
2023-01-09T05:49:13.659Z,6.90
2023-01-09T05:51:40.910Z,6.90
2023-01-09T05:54:08.241Z,6.90
2023-01-09T05:56:35.524Z,6.90
2023-01-09T05:59:02.847Z,6.90
2023-01-09T06:01:30.137Z,6.90
2023-01-09T06:03:57.607Z,6.90
2023-01-09T06:06:25.903Z,6.80
2023-01-09T06:08:53.225Z,7.00
2023-01-09T06:11:20.726Z,6.90
2023-01-09T06:13:47.918Z,6.80
2023-01-09T06:16:15.348Z,6.90
2023-01-09T06:18:42.623Z,6.90
2023-01-09T06:21:09.866Z,6.80
2023-01-09T06:23:37.299Z,6.80
2023-01-09T06:26:04.700Z,6.80
2023-01-09T06:28:32.040Z,6.80
2023-01-09T06:30:59.330Z,6.80
2023-01-09T06:33:26.590Z,6.80
2023-01-09T06:35:53.817Z,6.70
2023-01-09T06:38:21.102Z,6.70
2023-01-09T06:40:48.699Z,6.70
2023-01-09T06:43:16.501Z,6.80
2023-01-09T06:45:43.871Z,6.60
2023-01-09T06:48:11.404Z,6.80
2023-01-09T06:50:38.687Z,6.60
2023-01-09T06:53:05.947Z,6.60
2023-01-09T06:55:33.339Z,6.60
2023-01-09T06:58:00.542Z,6.60
2023-01-09T07:00:28.111Z,6.50
2023-01-09T07:02:55.384Z,6.50
2023-01-09T07:05:22.729Z,6.40
2023-01-09T07:07:49.989Z,6.40
2023-01-09T07:10:17.400Z,6.50
2023-01-09T07:12:44.716Z,6.40
2023-01-09T07:15:12.093Z,6.50
2023-01-09T07:17:39.377Z,6.40
2023-01-09T07:20:07.582Z,6.40
2023-01-09T07:22:34.846Z,6.40
2023-01-09T07:25:02.085Z,6.40
2023-01-09T07:27:29.796Z,6.40
2023-01-09T07:29:57.028Z,6.50
2023-01-09T07:32:24.274Z,6.40
2023-01-09T07:34:51.805Z,6.40
2023-01-09T07:37:19.632Z,6.40
2023-01-09T07:39:47.310Z,6.30
2023-01-09T07:42:14.980Z,6.40
2023-01-09T07:44:42.211Z,6.40
2023-01-09T07:47:09.427Z,6.40
2023-01-09T07:49:36.668Z,6.40
2023-01-09T07:52:04.914Z,6.30
2023-01-09T07:54:32.201Z,6.30
2023-01-09T07:56:59.439Z,6.30
2023-01-09T07:59:28.840Z,6.20
2023-01-09T08:01:56.744Z,6.20
2023-01-09T08:04:24.180Z,6.10
2023-01-09T08:06:51.466Z,6.20
2023-01-09T08:09:18.889Z,6.10
2023-01-09T08:11:46.133Z,6.10
2023-01-09T08:14:13.482Z,6.10
2023-01-09T08:16:40.717Z,6.00
2023-01-09T08:19:08.057Z,6.00
2023-01-09T08:21:35.798Z,6.10
2023-01-09T08:24:03.014Z,6.00
2023-01-09T08:26:30.225Z,6.10
2023-01-09T08:28:57.461Z,6.10
2023-01-09T08:31:24.724Z,6.20
2023-01-09T08:33:52.009Z,6.20
2023-01-09T08:36:19.262Z,6.10
2023-01-09T08:38:46.564Z,6.10
2023-01-09T08:41:32.240Z,6.10
2023-01-09T08:44:18.262Z,6.20
2023-01-09T08:47:04.072Z,6.10
2023-01-09T08:49:32.053Z,6.10
2023-01-09T08:51:59.322Z,6.10
2023-01-09T08:54:26.623Z,6.10
2023-01-09T08:56:53.836Z,6.20
2023-01-09T08:59:21.160Z,6.10
2023-01-09T09:01:48.574Z,6.10
2023-01-09T09:04:16.095Z,6.20
2023-01-09T09:06:43.382Z,6.20
2023-01-09T09:09:11.723Z,6.20
2023-01-09T09:11:39.002Z,6.20
2023-01-09T09:14:26.231Z,6.20
2023-01-09T09:16:53.646Z,6.10
2023-01-09T09:19:20.963Z,6.20
2023-01-09T09:21:48.211Z,6.30
2023-01-09T09:24:15.454Z,6.40
2023-01-09T09:26:44.520Z,6.30
2023-01-09T09:29:12.293Z,6.20
2023-01-09T09:31:39.568Z,6.20
2023-01-09T09:34:07.412Z,6.20
2023-01-09T09:36:34.895Z,6.30
2023-01-09T09:39:02.799Z,6.20
2023-01-09T09:42:24.901Z,6.30
2023-01-09T09:45:00.589Z,6.40
2023-01-09T09:48:05.113Z,6.50
2023-01-09T09:50:47.272Z,6.60
2023-01-09T09:53:31.990Z,6.50
2023-01-09T09:55:59.507Z,6.50
2023-01-09T09:58:36.893Z,6.40
2023-01-09T10:01:05.766Z,6.50
2023-01-09T10:03:45.953Z,6.60
2023-01-09T10:06:28.402Z,6.60
2023-01-09T10:09:31.046Z,6.60
2023-01-09T10:12:30.359Z,6.60
2023-01-09T10:15:00.027Z,6.70
2023-01-09T10:17:48.390Z,6.70
2023-01-09T10:20:24.983Z,6.70
2023-01-09T10:23:20.439Z,6.70
2023-01-09T10:26:01.514Z,6.70
2023-01-09T10:28:56.147Z,6.80
2023-01-09T10:31:44.616Z,6.70
2023-01-09T10:34:17.722Z,6.70
2023-01-09T10:36:50.839Z,6.70
2023-01-09T10:39:24.817Z,6.80
2023-01-09T10:42:04.668Z,6.90
2023-01-09T10:44:41.567Z,7.00
2023-01-09T10:47:18.356Z,7.00
2023-01-09T10:49:47.171Z,7.10
2023-01-09T10:52:20.344Z,7.00
2023-01-09T10:55:00.194Z,7.10
2023-01-09T10:57:40.647Z,7.10
2023-01-09T11:00:14.148Z,7.10
2023-01-09T11:02:41.816Z,7.10
2023-01-09T11:05:14.710Z,7.00
2023-01-09T11:07:45.718Z,7.00
2023-01-09T11:10:15.340Z,7.00
2023-01-09T11:12:43.035Z,7.00
2023-01-09T11:15:16.351Z,7.00
2023-01-09T11:17:43.961Z,7.00
2023-01-09T11:20:29.642Z,7.00
2023-01-09T11:22:58.630Z,7.00
2023-01-09T11:25:28.669Z,7.10
2023-01-09T11:28:01.925Z,7.10
2023-01-09T11:30:54.676Z,7.20
2023-01-09T11:33:28.698Z,7.10
2023-01-09T11:36:03.987Z,7.20
2023-01-09T11:38:44.423Z,7.30
2023-01-09T11:41:18.524Z,7.20
2023-01-09T11:43:48.498Z,7.20
2023-01-09T11:46:37.091Z,7.30
2023-01-09T11:49:22.446Z,7.30
2023-01-09T11:52:19.475Z,7.30
2023-01-09T11:54:57.901Z,7.30
2023-01-09T11:57:25.941Z,7.40
2023-01-09T12:00:01.935Z,7.30
2023-01-09T12:03:06.268Z,7.40
2023-01-09T12:05:43.594Z,7.40
2023-01-09T12:08:28.885Z,7.40
2023-01-09T12:11:19.233Z,7.40
2023-01-09T12:13:50.041Z,7.50
2023-01-09T12:16:37.154Z,7.50
2023-01-09T12:19:42.061Z,7.40
2023-01-09T12:22:27.478Z,7.50
2023-01-09T12:25:06.830Z,7.50
2023-01-09T12:27:34.043Z,7.50
2023-01-09T12:30:44.455Z,7.60
2023-01-09T12:33:30.148Z,7.50
2023-01-09T12:36:14.141Z,7.50
2023-01-09T12:39:14.380Z,7.50
2023-01-09T12:42:02.193Z,7.60
2023-01-09T12:44:50.892Z,7.50
2023-01-09T12:47:23.980Z,7.50
2023-01-09T12:50:24.004Z,7.60
2023-01-09T12:53:16.548Z,7.60
2023-01-09T12:55:50.799Z,7.50
2023-01-09T12:58:33.725Z,7.50
2023-01-09T13:01:04.645Z,7.50
2023-01-09T13:03:41.848Z,7.60
2023-01-09T13:06:16.112Z,7.60
2023-01-09T13:09:14.800Z,7.60
2023-01-09T13:11:49.911Z,7.60
2023-01-09T13:14:41.950Z,7.60
2023-01-09T13:17:18.472Z,7.50
2023-01-09T13:19:46.194Z,7.50
2023-01-09T13:22:14.871Z,7.50
2023-01-09T13:25:03.371Z,7.50
2023-01-09T13:27:36.628Z,7.50
2023-01-09T13:30:17.918Z,7.50
2023-01-09T13:33:14.870Z,7.40
2023-01-09T13:35:53.975Z,7.30
2023-01-09T13:38:24.291Z,7.30
2023-01-09T13:41:26.269Z,7.30
2023-01-09T13:44:00.292Z,7.30
2023-01-09T13:46:45.663Z,7.30
2023-01-09T13:49:33.137Z,7.40
2023-01-09T13:52:29.431Z,7.40
2023-01-09T13:54:58.236Z,7.40
2023-01-09T13:57:35.530Z,7.40
2023-01-09T14:00:14.809Z,7.40
2023-01-09T14:02:44.643Z,7.40
2023-01-09T14:05:16.067Z,7.40
2023-01-09T14:07:49.573Z,7.40
2023-01-09T14:10:24.402Z,7.30
2023-01-09T14:12:54.274Z,7.40
2023-01-09T14:15:36.875Z,7.40
2023-01-09T14:18:07.635Z,7.30
2023-01-09T14:20:40.946Z,7.30
2023-01-09T14:23:42.219Z,7.30
2023-01-09T14:25:56.724Z,7.30
2023-01-09T14:28:32.535Z,7.30
2023-01-09T14:30:59.734Z,7.30
2023-01-09T14:33:29.814Z,7.30
2023-01-09T14:36:29.327Z,7.20
2023-01-09T14:39:03.640Z,7.30
2023-01-09T14:42:03.915Z,7.30
2023-01-09T14:44:52.132Z,7.20
2023-01-09T14:47:31.584Z,7.20
2023-01-09T14:50:05.699Z,7.20
2023-01-09T14:52:41.656Z,7.10
2023-01-09T14:55:41.289Z,7.20
2023-01-09T14:58:12.693Z,7.20
2023-01-09T15:00:49.594Z,7.10
2023-01-09T15:03:17.343Z,7.10
2023-01-09T15:05:46.504Z,7.10
2023-01-09T15:08:21.827Z,7.30
2023-01-09T15:10:50.923Z,7.20
2023-01-09T15:13:25.998Z,7.20
2023-01-09T15:15:53.262Z,7.20
2023-01-09T15:18:25.953Z,7.10
2023-01-09T15:20:56.671Z,7.10
2023-01-09T15:23:30.574Z,7.00
2023-01-09T15:26:32.175Z,7.10
2023-01-09T15:29:17.308Z,7.10
2023-01-09T15:32:06.362Z,7.10
2023-01-09T15:34:34.255Z,7.10
2023-01-09T15:37:02.985Z,7.10
2023-01-09T15:39:36.658Z,7.10
2023-01-09T15:42:22.729Z,7.10
2023-01-09T15:44:53.679Z,7.10
2023-01-09T15:47:24.222Z,6.90
2023-01-09T15:49:52.359Z,6.90
2023-01-09T15:52:21.165Z,6.90
2023-01-09T15:54:49.043Z,6.90
2023-01-09T15:57:36.595Z,6.90
2023-01-09T16:00:28.948Z,6.90
2023-01-09T16:03:11.742Z,6.90
2023-01-09T16:05:45.011Z,6.80
2023-01-09T16:08:20.618Z,6.70
2023-01-09T16:10:53.697Z,6.70
2023-01-09T16:13:24.155Z,6.70
2023-01-09T16:15:52.606Z,6.60
2023-01-09T16:18:38.324Z,6.60
2023-01-09T16:21:38.004Z,6.50
2023-01-09T16:24:14.458Z,6.50
2023-01-09T16:26:41.766Z,6.60
2023-01-09T16:29:57.343Z,6.70
2023-01-09T16:32:27.255Z,6.40
2023-01-09T16:34:57.530Z,6.40
2023-01-09T16:37:27.263Z,6.40
2023-01-09T16:40:27.172Z,6.30
2023-01-09T16:43:06.965Z,6.20
2023-01-09T16:45:39.933Z,6.20
2023-01-09T16:48:17.292Z,6.20
2023-01-09T16:50:44.755Z,6.20
2023-01-09T16:53:22.534Z,6.20
2023-01-09T16:55:50.716Z,6.10
2023-01-09T16:58:26.534Z,6.10
2023-01-09T17:00:53.996Z,6.20
2023-01-09T17:03:21.267Z,6.00
2023-01-09T17:05:52.842Z,6.10
2023-01-09T17:08:23.504Z,6.00
2023-01-09T17:10:52.306Z,6.00
2023-01-09T17:13:19.684Z,6.00
2023-01-09T17:15:47.651Z,6.00
2023-01-09T17:18:21.089Z,6.00
2023-01-09T17:20:52.109Z,6.00
2023-01-09T17:23:25.450Z,6.00
2023-01-09T17:26:16.641Z,6.10
2023-01-09T17:28:48.415Z,6.00
2023-01-09T17:31:15.991Z,6.00
2023-01-09T17:33:43.319Z,6.00
2023-01-09T17:36:23.069Z,6.00
2023-01-09T17:38:54.852Z,6.00
2023-01-09T17:41:24.162Z,6.00
2023-01-09T17:43:51.833Z,6.00
2023-01-09T17:46:26.180Z,6.00
2023-01-09T17:48:53.654Z,5.90
2023-01-09T17:51:21.751Z,5.90
2023-01-09T17:53:49.678Z,5.90
2023-01-09T17:56:19.974Z,5.80
2023-01-09T17:58:48.009Z,5.80
2023-01-09T18:01:17.550Z,5.80
2023-01-09T18:03:48.375Z,5.70
2023-01-09T18:06:18.070Z,5.70
2023-01-09T18:08:46.059Z,5.60
2023-01-09T18:11:19.218Z,5.70
2023-01-09T18:13:48.907Z,5.60
2023-01-09T18:16:18.757Z,5.50
2023-01-09T18:18:52.333Z,5.60
2023-01-09T18:21:23.226Z,5.60
2023-01-09T18:23:51.482Z,5.40
2023-01-09T18:26:22.085Z,5.50
2023-01-09T18:28:51.956Z,5.40
2023-01-09T18:31:22.783Z,5.40
2023-01-09T18:33:52.359Z,5.40
2023-01-09T18:36:21.631Z,5.40
2023-01-09T18:38:53.469Z,5.30
2023-01-09T18:41:21.803Z,5.30
2023-01-09T18:43:50.744Z,5.30
2023-01-09T18:46:20.677Z,5.30
2023-01-09T18:48:55.795Z,5.20
2023-01-09T18:51:24.536Z,5.20
2023-01-09T18:53:52.414Z,5.10
2023-01-09T18:56:20.456Z,5.10
2023-01-09T18:58:48.382Z,5.10
2023-01-09T19:01:16.964Z,5.20
2023-01-09T19:03:45.143Z,5.10
2023-01-09T19:06:12.958Z,5.00
2023-01-09T19:08:40.204Z,5.00
2023-01-09T19:11:07.681Z,5.00
2023-01-09T19:13:37.424Z,4.90
2023-01-09T19:16:06.772Z,4.90
2023-01-09T19:18:39.674Z,4.90
2023-01-09T19:21:16.049Z,4.80
2023-01-09T19:23:44.256Z,4.80
2023-01-09T19:26:26.065Z,4.80
2023-01-09T19:28:57.790Z,4.80
2023-01-09T19:31:28.307Z,4.80
2023-01-09T19:33:56.680Z,4.80
2023-01-09T19:36:24.303Z,4.80
2023-01-09T19:39:02.689Z,4.80
2023-01-09T19:41:30.387Z,4.80
2023-01-09T19:43:59.623Z,4.80
2023-01-09T19:46:30.214Z,4.90
2023-01-09T19:48:58.860Z,4.70
2023-01-09T19:51:26.069Z,4.70
2023-01-09T19:53:58.196Z,4.70
2023-01-09T19:56:28.910Z,4.70
2023-01-09T19:58:58.936Z,4.60
2023-01-09T20:01:31.876Z,4.60
2023-01-09T20:04:03.379Z,4.60
2023-01-09T20:06:31.632Z,4.60
2023-01-09T20:09:03.406Z,4.60
2023-01-09T20:11:32.093Z,4.60
2023-01-09T20:14:03.036Z,4.50
2023-01-09T20:16:31.016Z,4.50
2023-01-09T20:19:00.442Z,4.40
2023-01-09T20:21:29.149Z,4.40
2023-01-09T20:23:59.265Z,4.40
2023-01-09T20:26:28.089Z,4.30
2023-01-09T20:28:56.689Z,4.30
2023-01-09T20:31:28.007Z,4.30
2023-01-09T20:33:55.583Z,4.30
2023-01-09T20:36:27.466Z,4.30
2023-01-09T20:38:58.134Z,4.30
2023-01-09T20:41:26.520Z,4.30
2023-01-09T20:43:58.699Z,4.30
2023-01-09T20:46:33.305Z,4.40
2023-01-09T20:49:06.281Z,4.40
2023-01-09T20:51:41.188Z,4.40
2023-01-09T20:54:08.545Z,4.50
2023-01-09T20:56:36.980Z,4.50
2023-01-09T20:59:06.648Z,4.50
2023-01-09T21:01:34.834Z,4.50
2023-01-09T21:04:03.169Z,4.60
2023-01-09T21:06:30.706Z,4.60
2023-01-09T21:08:58.048Z,4.50
2023-01-09T21:11:25.336Z,4.50
2023-01-09T21:13:52.641Z,4.30
2023-01-09T21:16:24.020Z,4.40
2023-01-09T21:18:52.394Z,4.30
2023-01-09T21:21:22.641Z,4.40
2023-01-09T21:23:52.361Z,4.30
2023-01-09T21:26:26.519Z,4.30
2023-01-09T21:28:55.345Z,4.10
2023-01-09T21:31:28.613Z,4.20
2023-01-09T21:33:56.171Z,4.20
2023-01-09T21:36:23.499Z,4.20
2023-01-09T21:38:54.078Z,4.30
2023-01-09T21:41:41.569Z,4.20
2023-01-09T21:44:31.628Z,4.20
2023-01-09T21:47:00.810Z,4.20
2023-01-09T21:49:31.028Z,4.20
2023-01-09T21:51:58.558Z,4.20
2023-01-09T21:54:26.104Z,4.20
2023-01-09T21:56:54.539Z,4.20
2023-01-09T21:59:21.891Z,4.10
2023-01-09T22:01:50.036Z,4.10
2023-01-09T22:04:19.469Z,4.10
2023-01-09T22:06:46.877Z,4.20
2023-01-09T22:09:15.030Z,4.10
2023-01-09T22:11:43.393Z,4.00
2023-01-09T22:14:15.577Z,4.10
2023-01-09T22:16:43.729Z,4.00
2023-01-09T22:19:12.362Z,4.00
2023-01-09T22:21:40.275Z,4.00
2023-01-09T22:24:07.683Z,4.00
2023-01-09T22:26:37.771Z,4.00
2023-01-09T22:29:05.494Z,4.10
2023-01-09T22:31:33.089Z,4.30
2023-01-09T22:34:02.562Z,4.00
2023-01-09T22:36:31.028Z,4.00
2023-01-09T22:39:00.052Z,4.00
2023-01-09T22:41:29.850Z,4.00
2023-01-09T22:43:57.250Z,4.00
2023-01-09T22:46:24.611Z,3.90
2023-01-09T22:48:51.815Z,3.90
2023-01-09T22:51:20.496Z,3.90
2023-01-09T22:53:48.469Z,4.00
2023-01-09T22:56:17.935Z,3.80
2023-01-09T22:58:49.961Z,3.80
2023-01-09T23:01:17.188Z,3.90
2023-01-09T23:03:44.410Z,3.90
2023-01-09T23:06:14.597Z,3.90
2023-01-09T23:08:43.370Z,3.90
2023-01-09T23:11:13.442Z,4.00
2023-01-09T23:13:40.848Z,3.90
2023-01-09T23:16:08.329Z,4.10
2023-01-09T23:18:35.642Z,4.10
2023-01-09T23:21:04.503Z,4.10
2023-01-09T23:23:32.343Z,4.10
2023-01-09T23:26:02.625Z,4.10
2023-01-09T23:28:30.455Z,4.10
2023-01-09T23:30:57.854Z,4.10
2023-01-09T23:33:25.200Z,4.20
2023-01-09T23:35:52.580Z,4.20
2023-01-09T23:38:20.506Z,4.20
2023-01-09T23:40:47.838Z,4.30
2023-01-09T23:43:15.470Z,4.30
2023-01-09T23:45:45.132Z,4.20
2023-01-09T23:48:15.033Z,4.00
2023-01-09T23:50:54.194Z,4.00
2023-01-09T23:53:23.002Z,3.90
2023-01-09T23:55:55.203Z,3.90
2023-01-09T23:58:22.539Z,3.90
